createdAt,value
2018-03-11T00:00:18.214Z,989.3
2018-03-11T00:00:58.688Z,989.31
2018-03-11T00:01:39.110Z,989.29
2018-03-11T00:02:19.694Z,989.32
2018-03-11T00:03:00.155Z,989.27
2018-03-11T00:03:40.663Z,989.26
2018-03-11T00:04:21.151Z,989.26
2018-03-11T00:05:01.659Z,989.31
2018-03-11T00:05:42.257Z,989.27
2018-03-11T00:06:22.664Z,989.24
2018-03-11T00:07:03.174Z,989.29
2018-03-11T00:07:43.604Z,989.25
2018-03-11T00:08:24.108Z,989.26
2018-03-11T00:09:04.657Z,989.3
2018-03-11T00:09:45.194Z,989.26
2018-03-11T00:10:25.750Z,989.3
2018-03-11T00:11:06.157Z,989.3
2018-03-11T00:11:46.646Z,989.33
2018-03-11T00:12:27.287Z,989.35
2018-03-11T00:13:07.678Z,989.37
2018-03-11T00:13:48.265Z,989.4
2018-03-11T00:14:28.634Z,989.4
2018-03-11T00:15:09.178Z,989.44
2018-03-11T00:15:49.720Z,989.45
2018-03-11T00:16:30.165Z,989.43
2018-03-11T00:17:10.651Z,989.41
2018-03-11T00:17:51.306Z,989.44
2018-03-11T00:18:31.811Z,989.41
2018-03-11T00:19:12.217Z,989.44
2018-03-11T00:19:52.828Z,989.39
2018-03-11T00:20:33.298Z,989.39
2018-03-11T00:21:13.866Z,989.38
2018-03-11T00:21:54.418Z,989.37
2018-03-11T00:22:34.966Z,989.37
2018-03-11T00:23:15.476Z,989.33
2018-03-11T00:23:55.929Z,989.32
2018-03-11T00:24:36.390Z,989.25
2018-03-11T00:25:16.974Z,989.27
2018-03-11T00:25:57.458Z,989.33
2018-03-11T00:26:37.976Z,989.26
2018-03-11T00:27:18.438Z,989.3
2018-03-11T00:27:58.917Z,989.27
2018-03-11T00:28:39.387Z,989.31
2018-03-11T00:29:19.910Z,989.3
2018-03-11T00:30:00.357Z,989.33
2018-03-11T00:30:40.827Z,989.3
2018-03-11T00:31:21.375Z,989.31
2018-03-11T00:32:01.876Z,989.25
2018-03-11T00:32:42.348Z,989.24
2018-03-11T00:33:22.880Z,989.21
2018-03-11T00:34:03.357Z,989.27
2018-03-11T00:34:43.861Z,989.26
2018-03-11T00:35:24.335Z,989.22
2018-03-11T00:36:04.845Z,989.26
2018-03-11T00:36:45.409Z,989.27
2018-03-11T00:37:25.868Z,989.27
2018-03-11T00:38:06.397Z,989.28
2018-03-11T00:38:46.932Z,989.24
2018-03-11T00:39:27.418Z,989.25
2018-03-11T00:40:07.892Z,989.24
2018-03-11T00:40:48.416Z,989.25
2018-03-11T00:41:28.849Z,989.21
2018-03-11T00:42:09.398Z,989.22
2018-03-11T00:42:49.853Z,989.23
2018-03-11T00:43:30.335Z,989.17
2018-03-11T00:44:10.871Z,989.16
2018-03-11T00:44:51.434Z,989.14
2018-03-11T00:45:31.932Z,989.13
2018-03-11T00:46:12.355Z,989.08
2018-03-11T00:46:52.888Z,989.07
2018-03-11T00:47:33.439Z,989.04
2018-03-11T00:48:14.035Z,989.07
2018-03-11T00:48:54.655Z,989.05
2018-03-11T00:49:35.212Z,989.09
2018-03-11T00:50:15.759Z,989.05
2018-03-11T00:50:56.164Z,989.06
2018-03-11T00:51:36.710Z,989.09
2018-03-11T00:52:17.163Z,989.02
2018-03-11T00:52:57.649Z,988.96
2018-03-11T00:53:38.135Z,988.99
2018-03-11T00:54:18.636Z,988.99
2018-03-11T00:54:59.156Z,989.01
2018-03-11T00:55:39.604Z,988.98
2018-03-11T00:56:20.142Z,988.96
2018-03-11T00:57:00.732Z,988.97
2018-03-11T00:57:41.180Z,988.95
2018-03-11T00:58:21.663Z,988.91
2018-03-11T00:59:02.172Z,988.91
2018-03-11T00:59:42.622Z,988.91
2018-03-11T01:00:23.193Z,988.93
2018-03-11T01:01:03.676Z,988.82
2018-03-11T01:01:44.107Z,988.8
2018-03-11T01:02:24.673Z,988.8
2018-03-11T01:03:05.213Z,988.78
2018-03-11T01:03:45.739Z,988.7
2018-03-11T01:04:26.322Z,988.72
2018-03-11T01:05:06.807Z,988.68
2018-03-11T01:05:47.289Z,988.65
2018-03-11T01:06:27.792Z,988.61
2018-03-11T01:07:08.225Z,988.58
2018-03-11T01:07:48.785Z,988.59
2018-03-11T01:08:29.316Z,988.6
2018-03-11T01:09:09.830Z,988.61
2018-03-11T01:09:50.383Z,988.62
2018-03-11T01:10:30.863Z,988.6
2018-03-11T01:11:11.290Z,988.58
2018-03-11T01:11:51.800Z,988.57
2018-03-11T01:12:32.219Z,988.55
2018-03-11T01:13:12.722Z,988.56
2018-03-11T01:13:53.275Z,988.55
2018-03-11T01:14:33.790Z,988.54
2018-03-11T01:15:14.233Z,988.54
2018-03-11T01:15:54.774Z,988.44
2018-03-11T01:16:35.242Z,988.43
2018-03-11T01:17:16.147Z,988.4
2018-03-11T01:17:56.542Z,988.36
2018-03-11T01:18:37.055Z,988.33
2018-03-11T01:19:17.555Z,988.29
2018-03-11T01:19:57.987Z,988.34
2018-03-11T01:20:38.479Z,988.35
2018-03-11T01:21:18.983Z,988.3
2018-03-11T01:21:59.467Z,988.32
2018-03-11T01:22:39.948Z,988.32
2018-03-11T01:23:20.472Z,988.28
2018-03-11T01:24:01.030Z,988.28
2018-03-11T01:24:41.416Z,988.32
2018-03-11T01:25:21.948Z,988.26
2018-03-11T01:26:02.481Z,988.27
2018-03-11T01:26:42.952Z,988.28
2018-03-11T01:27:23.445Z,988.25
2018-03-11T01:28:03.968Z,988.27
2018-03-11T01:28:44.501Z,988.27
2018-03-11T01:29:24.909Z,988.23
2018-03-11T01:30:05.458Z,988.21
2018-03-11T01:30:45.975Z,988.22
2018-03-11T01:31:26.396Z,988.2
2018-03-11T01:32:06.950Z,988.17
2018-03-11T01:32:47.404Z,988.12
2018-03-11T01:33:28.026Z,988.14
2018-03-11T01:34:08.352Z,988.12
2018-03-11T01:34:48.909Z,988.12
2018-03-11T01:35:29.378Z,988.1
2018-03-11T01:36:09.937Z,988.09
2018-03-11T01:36:50.519Z,988.07
2018-03-11T01:37:30.973Z,988.07
2018-03-11T01:38:11.502Z,988.06
2018-03-11T01:38:51.957Z,988.05
2018-03-11T01:39:32.656Z,988.07
2018-03-11T01:40:13.009Z,988.07
2018-03-11T01:40:53.540Z,988.12
2018-03-11T01:41:34.021Z,988.07
2018-03-11T01:42:14.582Z,988.05
2018-03-11T01:42:55.013Z,988.08
2018-03-11T01:43:35.546Z,988.03
2018-03-11T01:44:16.014Z,988.05
2018-03-11T01:44:56.462Z,988.05
2018-03-11T01:45:36.998Z,988.01
2018-03-11T01:46:17.502Z,987.95
2018-03-11T01:46:57.920Z,987.95
2018-03-11T01:47:38.383Z,987.91
2018-03-11T01:48:18.905Z,987.88
2018-03-11T01:48:59.378Z,987.88
2018-03-11T01:49:39.940Z,987.88
2018-03-11T01:50:20.334Z,987.85
2018-03-11T01:51:00.833Z,987.83
2018-03-11T01:51:41.373Z,987.83
2018-03-11T01:52:21.922Z,987.82
2018-03-11T01:53:02.348Z,987.8
2018-03-11T01:53:42.829Z,987.8
2018-03-11T01:54:23.345Z,987.81
2018-03-11T01:55:03.800Z,987.8
2018-03-11T01:55:44.350Z,987.76
2018-03-11T01:56:24.821Z,987.72
2018-03-11T01:57:05.272Z,987.76
2018-03-11T01:57:45.767Z,987.71
2018-03-11T01:58:26.486Z,987.64
2018-03-11T01:59:07.139Z,987.65
2018-03-11T01:59:47.692Z,987.59
2018-03-11T02:00:28.241Z,987.6
2018-03-11T02:01:08.685Z,987.53
2018-03-11T02:01:49.131Z,987.54
2018-03-11T02:02:29.698Z,987.51
2018-03-11T02:03:10.120Z,987.45
2018-03-11T02:03:50.725Z,987.43
2018-03-11T02:04:31.305Z,987.42
2018-03-11T02:05:11.851Z,987.41
2018-03-11T02:05:52.279Z,987.34
2018-03-11T02:06:32.771Z,987.32
2018-03-11T02:07:13.353Z,987.33
2018-03-11T02:07:53.881Z,987.31
2018-03-11T02:08:34.361Z,987.29
2018-03-11T02:09:14.836Z,987.34
2018-03-11T02:09:55.276Z,987.24
2018-03-11T02:10:35.875Z,987.29
2018-03-11T02:11:16.283Z,987.26
2018-03-11T02:11:56.739Z,987.23
2018-03-11T02:12:37.268Z,987.24
2018-03-11T02:13:17.742Z,987.25
2018-03-11T02:13:58.220Z,987.22
2018-03-11T02:14:38.753Z,987.21
2018-03-11T02:15:19.291Z,987.19
2018-03-11T02:15:59.753Z,987.19
2018-03-11T02:16:40.190Z,987.2
2018-03-11T02:17:20.703Z,987.12
2018-03-11T02:18:01.255Z,987.09
2018-03-11T02:18:41.675Z,987.12
2018-03-11T02:19:22.179Z,987.16
2018-03-11T02:20:02.702Z,987.19
2018-03-11T02:20:43.184Z,987.15
2018-03-11T02:21:23.720Z,987.15
2018-03-11T02:22:04.203Z,987.09
2018-03-11T02:22:44.722Z,987.05
2018-03-11T02:23:25.162Z,987.06
2018-03-11T02:24:05.678Z,987.07
2018-03-11T02:24:46.153Z,987.04
2018-03-11T02:25:26.649Z,986.98
2018-03-11T02:26:07.255Z,987.04
2018-03-11T02:26:47.740Z,987.04
2018-03-11T02:27:28.214Z,986.98
2018-03-11T02:28:08.699Z,986.97
2018-03-11T02:28:49.211Z,986.94
2018-03-11T02:29:29.612Z,986.97
2018-03-11T02:30:10.169Z,986.95
2018-03-11T02:30:50.606Z,986.97
2018-03-11T02:31:31.129Z,986.97
2018-03-11T02:32:11.580Z,987.01
2018-03-11T02:32:52.074Z,986.99
2018-03-11T02:33:32.602Z,986.97
2018-03-11T02:34:13.097Z,987.01
2018-03-11T02:34:53.590Z,986.93
2018-03-11T02:35:34.056Z,986.96
2018-03-11T02:36:14.537Z,986.96
2018-03-11T02:36:55.024Z,987.01
2018-03-11T02:37:35.521Z,987.02
2018-03-11T02:38:15.974Z,987.01
2018-03-11T02:38:56.524Z,986.98
2018-03-11T02:39:36.991Z,986.96
2018-03-11T02:40:17.509Z,986.97
2018-03-11T02:40:58.063Z,986.97
2018-03-11T02:41:38.500Z,986.94
2018-03-11T02:42:18.971Z,986.94
2018-03-11T02:42:59.452Z,986.86
2018-03-11T02:43:39.961Z,986.88
2018-03-11T02:44:20.398Z,986.89
2018-03-11T02:45:00.882Z,986.82
2018-03-11T02:45:41.379Z,986.84
2018-03-11T02:46:21.882Z,986.82
2018-03-11T02:47:02.334Z,986.84
2018-03-11T02:47:42.804Z,986.86
2018-03-11T02:48:23.323Z,986.88
2018-03-11T02:49:03.773Z,986.82
2018-03-11T02:49:44.275Z,986.85
2018-03-11T02:50:24.806Z,986.82
2018-03-11T02:51:05.257Z,986.84
2018-03-11T02:51:45.756Z,986.8
2018-03-11T02:52:26.284Z,986.8
2018-03-11T02:53:06.779Z,986.77
2018-03-11T02:53:47.305Z,986.77
2018-03-11T02:54:27.799Z,986.76
2018-03-11T02:55:08.282Z,986.78
2018-03-11T02:55:48.790Z,986.77
2018-03-11T02:56:29.270Z,986.71
2018-03-11T02:57:09.794Z,986.75
2018-03-11T02:57:50.317Z,986.73
2018-03-11T02:58:30.761Z,986.73
2018-03-11T02:59:11.296Z,986.73
2018-03-11T02:59:51.785Z,986.73
2018-03-11T03:00:32.278Z,986.72
2018-03-11T03:01:12.768Z,986.7
2018-03-11T03:01:53.291Z,986.71
2018-03-11T03:02:33.769Z,986.72
2018-03-11T03:03:14.298Z,986.72
2018-03-11T03:03:54.820Z,986.74
2018-03-11T03:04:35.321Z,986.78
2018-03-11T03:05:15.846Z,986.78
2018-03-11T03:05:56.336Z,986.77
2018-03-11T03:06:36.831Z,986.76
2018-03-11T03:07:17.310Z,986.71
2018-03-11T03:07:57.798Z,986.74
2018-03-11T03:08:38.264Z,986.73
2018-03-11T03:09:18.753Z,986.74
2018-03-11T03:09:59.277Z,986.74
2018-03-11T03:10:39.788Z,986.76
2018-03-11T03:11:20.295Z,986.74
2018-03-11T03:12:00.793Z,986.72
2018-03-11T03:12:41.260Z,986.73
2018-03-11T03:13:21.775Z,986.8
2018-03-11T03:14:02.278Z,986.79
2018-03-11T03:14:42.811Z,986.8
2018-03-11T03:15:23.286Z,986.78
2018-03-11T03:16:03.796Z,986.8
2018-03-11T03:16:44.294Z,986.82
2018-03-11T03:17:24.771Z,986.81
2018-03-11T03:18:05.275Z,986.8
2018-03-11T03:18:45.797Z,986.83
2018-03-11T03:19:26.346Z,986.87
2018-03-11T03:20:06.818Z,986.86
2018-03-11T03:20:47.304Z,986.81
2018-03-11T03:21:27.790Z,986.82
2018-03-11T03:22:08.296Z,986.86
2018-03-11T03:22:48.796Z,986.84
2018-03-11T03:23:29.304Z,986.83
2018-03-11T03:24:09.788Z,986.8
2018-03-11T03:24:50.266Z,986.82
2018-03-11T03:25:30.770Z,986.81
2018-03-11T03:26:11.262Z,986.81
2018-03-11T03:26:51.752Z,986.78
2018-03-11T03:27:32.262Z,986.79
2018-03-11T03:28:12.732Z,986.81
2018-03-11T03:28:53.281Z,986.8
2018-03-11T03:29:33.792Z,986.79
2018-03-11T03:30:14.286Z,986.77
2018-03-11T03:30:54.749Z,986.82
2018-03-11T03:31:35.214Z,986.78
2018-03-11T03:32:15.675Z,986.83
2018-03-11T03:32:56.184Z,986.77
2018-03-11T03:33:36.634Z,986.83
2018-03-11T03:34:17.156Z,986.83
2018-03-11T03:34:57.604Z,986.86
2018-03-11T03:35:38.105Z,986.82
2018-03-11T03:36:18.578Z,986.81
2018-03-11T03:36:59.085Z,986.83
2018-03-11T03:37:39.582Z,986.76
2018-03-11T03:38:20.087Z,986.85
2018-03-11T03:39:00.599Z,986.8
2018-03-11T03:39:41.114Z,986.86
2018-03-11T03:40:21.579Z,986.83
2018-03-11T03:41:02.059Z,986.83
2018-03-11T03:41:42.575Z,986.81
2018-03-11T03:42:23.078Z,986.79
2018-03-11T03:43:03.558Z,986.83
2018-03-11T03:43:44.045Z,986.78
2018-03-11T03:44:24.530Z,986.77
2018-03-11T03:45:05.084Z,986.72
2018-03-11T03:45:45.554Z,986.71
2018-03-11T03:46:26.087Z,986.75
2018-03-11T03:47:06.547Z,986.8
2018-03-11T03:47:47.047Z,986.8
2018-03-11T03:48:27.554Z,986.84
2018-03-11T03:49:08.070Z,986.81
2018-03-11T03:49:48.534Z,986.83
2018-03-11T03:50:29.039Z,986.8
2018-03-11T03:51:09.549Z,986.83
2018-03-11T03:51:50.011Z,986.78
2018-03-11T03:52:30.499Z,986.82
2018-03-11T03:53:10.988Z,986.82
2018-03-11T03:53:51.507Z,986.78
2018-03-11T03:54:32.002Z,986.8
2018-03-11T03:55:12.489Z,986.81
2018-03-11T03:55:53.004Z,986.81
2018-03-11T03:56:33.510Z,986.83
2018-03-11T03:57:13.996Z,986.82
2018-03-11T03:57:54.547Z,986.78
2018-03-11T03:58:35.012Z,986.78
2018-03-11T03:59:15.497Z,986.78
2018-03-11T03:59:56.029Z,986.76
2018-03-11T04:00:36.495Z,986.71
2018-03-11T04:01:17.021Z,986.75
2018-03-11T04:01:57.478Z,986.7
2018-03-11T04:02:37.965Z,986.75
2018-03-11T04:03:18.448Z,986.74
2018-03-11T04:03:58.992Z,986.72
2018-03-11T04:04:39.550Z,986.67
2018-03-11T04:05:19.974Z,986.69
2018-03-11T04:06:00.480Z,986.63
2018-03-11T04:06:40.991Z,986.61
2018-03-11T04:07:21.473Z,986.62
2018-03-11T04:08:01.975Z,986.58
2018-03-11T04:08:42.492Z,986.55
2018-03-11T04:09:22.956Z,986.51
2018-03-11T04:10:03.466Z,986.52
2018-03-11T04:10:43.953Z,986.54
2018-03-11T04:11:24.459Z,986.53
2018-03-11T04:12:04.940Z,986.52
2018-03-11T04:12:45.451Z,986.49
2018-03-11T04:13:25.943Z,986.46
2018-03-11T04:14:06.439Z,986.44
2018-03-11T04:14:46.969Z,986.44
2018-03-11T04:15:27.448Z,986.47
2018-03-11T04:16:07.930Z,986.47
2018-03-11T04:16:48.414Z,986.45
2018-03-11T04:17:28.907Z,986.48
2018-03-11T04:18:09.405Z,986.46
2018-03-11T04:18:49.924Z,986.48
2018-03-11T04:19:30.446Z,986.46
2018-03-11T04:20:10.900Z,986.46
2018-03-11T04:20:51.386Z,986.37
2018-03-11T04:21:31.895Z,986.39
2018-03-11T04:22:12.383Z,986.41
2018-03-11T04:22:52.869Z,986.37
2018-03-11T04:23:33.367Z,986.41
2018-03-11T04:24:13.908Z,986.38
2018-03-11T04:24:54.356Z,986.35
2018-03-11T04:25:34.841Z,986.36
2018-03-11T04:26:15.434Z,986.34
2018-03-11T04:26:55.917Z,986.35
2018-03-11T04:27:36.399Z,986.31
2018-03-11T04:28:16.895Z,986.34
2018-03-11T04:28:57.421Z,986.36
2018-03-11T04:29:37.883Z,986.33
2018-03-11T04:30:18.406Z,986.33
2018-03-11T04:30:58.945Z,986.31
2018-03-11T04:31:39.411Z,986.34
2018-03-11T04:32:19.884Z,986.28
2018-03-11T04:33:00.421Z,986.28
2018-03-11T04:33:40.875Z,986.29
2018-03-11T04:34:21.361Z,986.24
2018-03-11T04:35:01.861Z,986.22
2018-03-11T04:35:42.376Z,986.23
2018-03-11T04:36:22.881Z,986.24
2018-03-11T04:37:03.354Z,986.2
2018-03-11T04:37:43.846Z,986.19
2018-03-11T04:38:24.353Z,986.18
2018-03-11T04:39:04.840Z,986.21
2018-03-11T04:39:45.390Z,986.15
2018-03-11T04:40:25.890Z,986.15
2018-03-11T04:41:06.368Z,986.17
2018-03-11T04:41:46.848Z,986.11
2018-03-11T04:42:27.387Z,986.14
2018-03-11T04:43:07.893Z,986.09
2018-03-11T04:43:48.398Z,986.08
2018-03-11T04:44:28.875Z,986.11
2018-03-11T04:45:09.360Z,986.08
2018-03-11T04:45:49.870Z,986.11
2018-03-11T04:46:30.363Z,986.07
2018-03-11T04:47:10.899Z,986.06
2018-03-11T04:47:51.338Z,986.04
2018-03-11T04:48:31.850Z,986.06
2018-03-11T04:49:12.352Z,986.02
2018-03-11T04:49:52.836Z,986
2018-03-11T04:50:33.325Z,986.04
2018-03-11T04:51:13.810Z,986.06
2018-03-11T04:51:54.308Z,986
2018-03-11T04:52:34.832Z,986
2018-03-11T04:53:15.324Z,985.95
2018-03-11T04:53:55.802Z,985.98
2018-03-11T04:54:36.316Z,985.95
2018-03-11T04:55:16.813Z,985.96
2018-03-11T04:55:57.280Z,985.9
2018-03-11T04:56:37.790Z,985.84
2018-03-11T04:57:18.287Z,985.83
2018-03-11T04:57:58.822Z,985.85
2018-03-11T04:58:39.323Z,985.83
2018-03-11T04:59:19.817Z,985.86
2018-03-11T05:00:00.330Z,985.86
2018-03-11T05:00:40.823Z,985.94
2018-03-11T05:01:21.305Z,985.89
2018-03-11T05:02:01.796Z,985.86
2018-03-11T05:02:42.309Z,985.85
2018-03-11T05:03:22.794Z,985.84
2018-03-11T05:04:03.322Z,985.87
2018-03-11T05:04:43.883Z,985.86
2018-03-11T05:05:24.346Z,985.81
2018-03-11T05:06:04.848Z,985.85
2018-03-11T05:06:45.336Z,985.87
2018-03-11T05:07:25.857Z,985.88
2018-03-11T05:08:06.356Z,985.83
2018-03-11T05:08:46.849Z,985.86
2018-03-11T05:09:27.357Z,985.78
2018-03-11T05:10:07.861Z,985.75
2018-03-11T05:10:48.341Z,985.73
2018-03-11T05:11:28.852Z,985.65
2018-03-11T05:12:09.354Z,985.62
2018-03-11T05:12:49.827Z,985.57
2018-03-11T05:13:30.327Z,985.53
2018-03-11T05:14:10.836Z,985.48
2018-03-11T05:14:51.427Z,985.51
2018-03-11T05:15:31.835Z,985.48
2018-03-11T05:16:12.341Z,985.45
2018-03-11T05:16:52.840Z,985.44
2018-03-11T05:17:33.330Z,985.43
2018-03-11T05:18:13.840Z,985.37
2018-03-11T05:18:54.330Z,985.4
2018-03-11T05:19:34.829Z,985.37
2018-03-11T05:20:15.353Z,985.31
2018-03-11T05:20:55.874Z,985.3
2018-03-11T05:21:36.373Z,985.28
2018-03-11T05:22:16.884Z,985.22
2018-03-11T05:22:57.416Z,985.24
2018-03-11T05:23:37.923Z,985.16
2018-03-11T05:24:18.532Z,985.15
2018-03-11T05:24:59.018Z,985.12
2018-03-11T05:25:39.493Z,985.09
2018-03-11T05:26:19.989Z,985.1
2018-03-11T05:27:00.506Z,985.08
2018-03-11T05:27:41.018Z,985.03
2018-03-11T05:28:21.519Z,985.01
2018-03-11T05:29:02.026Z,985.03
2018-03-11T05:29:42.507Z,985.07
2018-03-11T05:30:23.015Z,985.06
2018-03-11T05:31:03.537Z,985
2018-03-11T05:31:44.049Z,985.02
2018-03-11T05:32:24.533Z,985.07
2018-03-11T05:33:05.031Z,985.01
2018-03-11T05:33:45.565Z,985.01
2018-03-11T05:34:26.034Z,985.04
2018-03-11T05:35:06.521Z,985.08
2018-03-11T05:35:46.997Z,985.03
2018-03-11T05:36:27.513Z,985.05
2018-03-11T05:37:08.032Z,985.08
2018-03-11T05:37:48.556Z,985.06
2018-03-11T05:38:29.030Z,985.03
2018-03-11T05:39:09.575Z,984.98
2018-03-11T05:39:50.051Z,984.99
2018-03-11T05:40:30.572Z,984.94
2018-03-11T05:41:11.038Z,984.86
2018-03-11T05:41:51.586Z,984.9
2018-03-11T05:42:32.056Z,984.84
2018-03-11T05:43:12.589Z,984.8
2018-03-11T05:43:53.080Z,984.78
2018-03-11T05:44:33.585Z,984.77
2018-03-11T05:45:14.074Z,984.74
2018-03-11T05:45:54.565Z,984.76
2018-03-11T05:46:35.065Z,984.75
2018-03-11T05:47:15.603Z,984.71
2018-03-11T05:47:56.139Z,984.68
2018-03-11T05:48:36.660Z,984.66
2018-03-11T05:49:17.171Z,984.63
2018-03-11T05:49:57.665Z,984.59
2018-03-11T05:50:38.197Z,984.59
2018-03-11T05:51:18.720Z,984.63
2018-03-11T05:51:59.242Z,984.6
2018-03-11T05:52:39.718Z,984.65
2018-03-11T05:53:20.227Z,984.64
2018-03-11T05:54:00.713Z,984.6
2018-03-11T05:54:41.220Z,984.63
2018-03-11T05:55:21.748Z,984.61
2018-03-11T05:56:02.222Z,984.61
2018-03-11T05:56:42.707Z,984.59
2018-03-11T05:57:23.174Z,984.58
2018-03-11T05:58:03.682Z,984.53
2018-03-11T05:58:44.200Z,984.56
2018-03-11T05:59:24.749Z,984.57
2018-03-11T06:00:05.204Z,984.57
2018-03-11T06:00:45.692Z,984.53
2018-03-11T06:01:26.176Z,984.56
2018-03-11T06:03:19.252Z,984.5
2018-03-11T06:03:59.756Z,984.51
2018-03-11T06:04:40.260Z,984.55
2018-03-11T06:05:20.757Z,984.49
2018-03-11T06:06:01.262Z,984.46
2018-03-11T06:06:41.764Z,984.47
2018-03-11T06:07:22.288Z,984.51
2018-03-11T06:08:02.816Z,984.5
2018-03-11T06:08:43.264Z,984.53
2018-03-11T06:09:23.737Z,984.47
2018-03-11T06:11:43.915Z,984.42
2018-03-11T06:12:24.405Z,984.41
2018-03-11T06:13:04.940Z,984.39
2018-03-11T06:13:45.418Z,984.39
2018-03-11T06:14:25.926Z,984.44
2018-03-11T06:15:06.499Z,984.37
2018-03-11T06:15:47.035Z,984.34
2018-03-11T06:16:27.381Z,984.33
2018-03-11T06:17:07.916Z,984.3
2018-03-11T06:17:48.375Z,984.24
2018-03-11T06:18:28.850Z,984.26
2018-03-11T06:19:09.362Z,984.24
2018-03-11T06:19:49.893Z,984.26
2018-03-11T06:20:30.376Z,984.25
2018-03-11T06:21:10.890Z,984.27
2018-03-11T06:21:51.359Z,984.21
2018-03-11T06:22:31.857Z,984.2
2018-03-11T06:23:12.343Z,984.18
2018-03-11T06:23:52.839Z,984.17
2018-03-11T06:24:33.359Z,984.2
2018-03-11T06:25:13.881Z,984.14
2018-03-11T06:25:54.382Z,984.09
2018-03-11T06:26:34.866Z,984.07
2018-03-11T06:27:15.362Z,984.04
2018-03-11T06:27:55.906Z,983.97
2018-03-11T06:28:36.741Z,983.99
2018-03-11T06:29:17.219Z,983.98
2018-03-11T06:29:59.394Z,984
2018-03-11T06:30:40.248Z,983.96
2018-03-11T06:31:21.473Z,983.94
2018-03-11T06:32:05.848Z,983.93
2018-03-11T06:32:46.637Z,983.95
2018-03-11T06:33:27.130Z,983.97
2018-03-11T06:34:07.642Z,983.96
2018-03-11T06:34:49.237Z,983.96
2018-03-11T06:35:29.813Z,983.93
2018-03-11T06:36:10.345Z,983.91
2018-03-11T06:36:50.848Z,983.88
2018-03-11T06:37:31.420Z,983.81
2018-03-11T06:38:11.865Z,983.82
2018-03-11T06:38:52.378Z,983.76
2018-03-11T06:39:32.872Z,983.72
2018-03-11T06:40:13.362Z,983.74
2018-03-11T06:40:53.905Z,983.72
2018-03-11T06:41:34.405Z,983.72
2018-03-11T06:42:14.894Z,983.87
2018-03-11T06:42:55.367Z,983.85
2018-03-11T06:43:35.871Z,983.89
2018-03-11T06:44:16.396Z,983.9
2018-03-11T06:44:56.925Z,983.93
2018-03-11T06:45:37.402Z,984.02
2018-03-11T06:46:17.915Z,984.09
2018-03-11T06:46:58.464Z,984.16
2018-03-11T06:47:38.918Z,984.18
2018-03-11T06:48:19.397Z,984.3
2018-03-11T06:48:59.923Z,984.33
2018-03-11T06:49:40.425Z,984.4
2018-03-11T06:50:20.934Z,984.43
2018-03-11T06:51:01.495Z,984.43
2018-03-11T06:51:42.022Z,984.48
2018-03-11T06:52:22.511Z,984.51
2018-03-11T06:53:03.007Z,984.6
2018-03-11T06:53:43.508Z,984.54
2018-03-11T06:54:23.996Z,984.55
2018-03-11T06:55:06.095Z,984.65
2018-03-11T06:55:46.589Z,984.7
2018-03-11T06:56:27.077Z,984.74
2018-03-11T06:57:07.586Z,984.71
2018-03-11T06:57:48.069Z,984.68
2018-03-11T06:58:28.571Z,984.64
2018-03-11T06:59:09.115Z,984.67
2018-03-11T06:59:49.574Z,984.68
2018-03-11T07:00:30.100Z,984.61
2018-03-11T07:01:10.579Z,984.59
2018-03-11T07:01:51.079Z,984.58
2018-03-11T07:02:31.590Z,984.5
2018-03-11T07:03:12.102Z,984.58
2018-03-11T07:03:52.669Z,984.56
2018-03-11T07:04:33.142Z,984.52
2018-03-11T07:05:13.718Z,984.54
2018-03-11T07:05:54.107Z,984.56
2018-03-11T07:06:34.613Z,984.61
2018-03-11T07:07:15.097Z,984.64
2018-03-11T07:07:55.561Z,984.69
2018-03-11T07:08:36.045Z,984.64
2018-03-11T07:09:16.530Z,984.62
2018-03-11T07:09:57.032Z,984.58
2018-03-11T07:10:37.531Z,984.57
2018-03-11T07:11:18.035Z,984.58
2018-03-11T07:11:58.534Z,984.66
2018-03-11T07:12:39.056Z,984.62
2018-03-11T07:13:19.571Z,984.62
2018-03-11T07:14:00.052Z,984.68
2018-03-11T07:14:40.557Z,984.57
2018-03-11T07:15:21.062Z,984.54
2018-03-11T07:16:01.566Z,984.59
2018-03-11T07:16:42.069Z,984.61
2018-03-11T07:17:22.572Z,984.61
2018-03-11T07:18:03.068Z,984.6
2018-03-11T07:18:43.556Z,984.54
2018-03-11T07:19:24.051Z,984.62
2018-03-11T07:20:04.556Z,984.61
2018-03-11T07:20:45.069Z,984.67
2018-03-11T07:21:25.586Z,984.61
2018-03-11T07:22:06.094Z,984.66
2018-03-11T07:22:46.591Z,984.63
2018-03-11T07:23:27.164Z,984.57
2018-03-11T07:24:07.734Z,984.59
2018-03-11T07:24:49.138Z,984.59
2018-03-11T07:25:29.030Z,984.64
2018-03-11T07:26:09.526Z,984.64
2018-03-11T07:26:49.977Z,984.69
2018-03-11T07:27:30.801Z,984.72
2018-03-11T07:28:12.354Z,984.71
2018-03-11T07:28:51.800Z,984.68
2018-03-11T07:29:32.708Z,984.7
2018-03-11T07:30:13.206Z,984.79
2018-03-11T07:30:54.248Z,984.8
2018-03-11T07:31:34.777Z,984.81
2018-03-11T07:32:15.298Z,984.85
2018-03-11T07:32:55.795Z,984.86
2018-03-11T07:33:36.316Z,984.92
2018-03-11T07:34:16.874Z,984.94
2018-03-11T07:34:57.565Z,984.97
2018-03-11T07:35:38.032Z,985.01
2018-03-11T07:36:18.484Z,985.12
2018-03-11T07:36:58.953Z,985.19
2018-03-11T07:39:29.069Z,985.43
2018-03-11T07:40:09.590Z,985.46
2018-03-11T07:40:50.047Z,985.48
2018-03-11T07:41:30.634Z,985.54
2018-03-11T07:42:12.289Z,985.58
2018-03-11T07:42:53.113Z,985.58
2018-03-11T07:43:33.670Z,985.5
2018-03-11T07:44:14.285Z,985.5
2018-03-11T07:44:54.689Z,985.43
2018-03-11T07:45:35.210Z,985.45
2018-03-11T07:46:15.752Z,985.37
2018-03-11T07:46:56.308Z,985.29
2018-03-11T07:47:36.815Z,985.38
2018-03-11T07:48:17.450Z,985.48
2018-03-11T07:48:58.003Z,985.55
2018-03-11T07:49:38.535Z,985.54
2018-03-11T07:50:18.958Z,985.55
2018-03-11T07:50:59.531Z,985.55
2018-03-11T07:51:40.457Z,985.57
2018-03-11T07:52:21.141Z,985.59
2018-03-11T07:53:01.900Z,985.53
2018-03-11T07:53:42.385Z,985.46
2018-03-11T07:54:22.864Z,985.36
2018-03-11T07:55:03.413Z,985.33
2018-03-11T07:55:44.213Z,985.38
2018-03-11T07:56:24.653Z,985.39
2018-03-11T07:57:05.081Z,985.42
2018-03-11T07:57:45.587Z,985.51
2018-03-11T07:58:26.105Z,985.61
2018-03-11T07:59:06.794Z,985.63
2018-03-11T07:59:47.269Z,985.64
2018-03-11T08:00:27.723Z,985.78
2018-03-11T08:01:10.857Z,985.82
2018-03-11T08:01:51.378Z,985.8
2018-03-11T08:02:31.862Z,985.66
2018-03-11T08:03:12.433Z,985.68
2018-03-11T08:03:52.807Z,985.69
2018-03-11T08:04:33.349Z,985.69
2018-03-11T08:05:13.896Z,985.71
2018-03-11T08:05:54.368Z,985.75
2018-03-11T08:06:34.944Z,985.77
2018-03-11T08:07:15.472Z,985.64
2018-03-11T08:07:56.153Z,985.6
2018-03-11T08:08:36.888Z,985.59
2018-03-11T08:09:17.365Z,985.61
2018-03-11T08:09:57.857Z,985.61
2018-03-11T08:10:38.704Z,985.68
2018-03-11T08:11:19.461Z,985.71
2018-03-11T08:11:59.922Z,985.69
2018-03-11T08:12:40.393Z,985.74
2018-03-11T08:13:20.930Z,985.8
2018-03-11T08:14:01.718Z,985.81
2018-03-11T08:14:42.177Z,985.84
2018-03-11T08:15:22.641Z,985.82
2018-03-11T08:16:03.159Z,985.79
2018-03-11T08:16:43.626Z,985.79
2018-03-11T08:17:24.146Z,985.77
2018-03-11T08:18:04.779Z,985.83
2018-03-11T08:18:45.400Z,985.95
2018-03-11T08:19:25.888Z,985.97
2018-03-11T08:20:06.414Z,985.94
2018-03-11T08:20:46.887Z,985.89
2018-03-11T08:21:27.359Z,985.85
2018-03-11T08:22:07.859Z,985.89
2018-03-11T08:22:48.400Z,985.86
2018-03-11T08:23:28.819Z,985.9
2018-03-11T08:24:09.436Z,985.9
2018-03-11T08:24:49.811Z,985.96
2018-03-11T08:25:30.309Z,985.86
2018-03-11T08:26:10.800Z,985.83
2018-03-11T08:26:51.271Z,985.83
2018-03-11T08:27:32.117Z,985.76
2018-03-11T08:28:12.491Z,985.79
2018-03-11T08:28:53.010Z,985.87
2018-03-11T08:29:33.500Z,985.88
2018-03-11T08:30:13.996Z,985.86
2018-03-11T08:30:54.743Z,985.87
2018-03-11T08:31:35.199Z,985.86
2018-03-11T08:32:15.729Z,985.83